createdAt,value
2018-04-17T00:00:32.399Z,21.17
2018-04-17T00:03:35.908Z,20.73
2018-04-17T00:06:40.209Z,19.57
2018-04-17T00:09:43.572Z,20.77
2018-04-17T00:12:46.943Z,20.37
2018-04-17T00:15:50.727Z,21.40
2018-04-17T00:18:54.151Z,24.97
2018-04-17T00:21:57.515Z,24.40
2018-04-17T00:25:00.878Z,22.03
2018-04-17T00:28:04.251Z,21.27
2018-04-17T00:31:07.593Z,24.03
2018-04-17T00:34:10.970Z,24.93
2018-04-17T00:37:14.320Z,24.67
2018-04-17T00:40:17.812Z,23.87
2018-04-17T00:43:21.180Z,23.90
2018-04-17T00:46:24.542Z,24.50
2018-04-17T00:49:28.674Z,23.93
2018-04-17T00:52:32.088Z,23.37
2018-04-17T00:55:35.449Z,23.03
2018-04-17T00:58:39.560Z,22.57
2018-04-17T01:01:43.684Z,23.00
2018-04-17T01:04:47.935Z,21.63
2018-04-17T01:07:51.279Z,22.20
2018-04-17T01:10:54.650Z,20.13
2018-04-17T01:13:58.083Z,20.70
2018-04-17T01:17:01.488Z,19.60
2018-04-17T01:20:04.840Z,19.47
2018-04-17T01:23:08.219Z,19.60
2018-04-17T01:26:11.582Z,20.43
2018-04-17T01:29:14.927Z,21.60
2018-04-17T01:32:18.324Z,23.23
2018-04-17T01:35:21.745Z,25.00
2018-04-17T01:38:25.133Z,27.13
2018-04-17T01:41:28.487Z,23.40
2018-04-17T01:44:31.861Z,24.30
2018-04-17T01:47:35.979Z,23.20
2018-04-17T01:50:39.336Z,24.10
2018-04-17T01:53:42.804Z,23.60
2018-04-17T01:56:46.161Z,23.07
2018-04-17T01:59:49.560Z,24.30
2018-04-17T02:02:52.930Z,24.43
2018-04-17T02:05:56.293Z,24.37
2018-04-17T02:08:59.653Z,23.43
2018-04-17T02:12:03.010Z,22.83
2018-04-17T02:15:07.133Z,23.10
2018-04-17T02:18:11.269Z,22.87
2018-04-17T02:21:14.806Z,22.10
2018-04-17T02:24:18.202Z,22.00
2018-04-17T02:27:21.551Z,20.27
2018-04-17T02:30:25.668Z,20.83
2018-04-17T02:33:29.790Z,20.13
2018-04-17T02:36:33.152Z,20.90
2018-04-17T02:39:36.505Z,19.73
2018-04-17T02:42:39.953Z,21.03
2018-04-17T02:45:44.819Z,20.57
2018-04-17T02:48:48.189Z,18.90
2018-04-17T02:51:51.569Z,19.50
2018-04-17T02:54:54.926Z,19.50
2018-04-17T02:57:58.308Z,20.63
2018-04-17T03:01:02.447Z,22.83
2018-04-17T03:04:05.813Z,24.50
2018-04-17T03:07:09.165Z,23.97
2018-04-17T03:10:12.545Z,22.87
2018-04-17T03:13:15.895Z,20.67
2018-04-17T03:16:19.250Z,22.30
2018-04-17T03:19:22.600Z,20.70
2018-04-17T03:22:25.951Z,19.40
2018-04-17T03:25:29.333Z,19.07
2018-04-17T03:28:32.681Z,19.83
2018-04-17T03:31:36.055Z,20.97
2018-04-17T03:34:39.398Z,21.70
2018-04-17T03:37:42.757Z,21.03
2018-04-17T03:40:46.109Z,21.00
2018-04-17T03:43:50.292Z,20.13
2018-04-17T03:46:53.723Z,21.13
2018-04-17T03:49:57.872Z,20.87
2018-04-17T03:53:01.251Z,21.53
2018-04-17T03:56:05.375Z,21.83
2018-04-17T03:59:09.573Z,20.70
2018-04-17T04:02:13.692Z,19.80
2018-04-17T04:05:17.829Z,22.17
2018-04-17T04:08:21.233Z,23.10
2018-04-17T04:11:24.605Z,23.43
2018-04-17T04:14:28.731Z,23.27
2018-04-17T04:17:50.580Z,22.97
2018-04-17T04:21:11.832Z,23.13
2018-04-17T04:24:32.905Z,23.83
2018-04-17T04:27:36.429Z,23.17
2018-04-17T04:30:39.779Z,23.43
2018-04-17T04:33:43.210Z,22.37
2018-04-17T04:36:46.581Z,23.97
2018-04-17T04:39:49.950Z,22.67
2018-04-17T04:42:53.304Z,21.93
2018-04-17T04:45:57.437Z,23.23
2018-04-17T04:49:00.817Z,23.07
2018-04-17T04:52:05.010Z,23.70
2018-04-17T04:55:08.389Z,22.67
2018-04-17T04:58:11.981Z,22.80
2018-04-17T05:01:15.353Z,23.23
2018-04-17T05:04:18.732Z,22.80
2018-04-17T05:07:22.862Z,22.77
2018-04-17T05:10:26.211Z,24.30
2018-04-17T05:13:29.729Z,21.90
2018-04-17T05:16:33.104Z,22.10
2018-04-17T05:19:36.464Z,23.60
2018-04-17T05:22:39.817Z,22.30
2018-04-17T05:25:43.210Z,23.67
2018-04-17T05:28:46.609Z,23.27
2018-04-17T05:31:49.996Z,23.27
2018-04-17T05:34:53.412Z,23.43
2018-04-17T05:37:56.794Z,24.07
2018-04-17T05:41:00.259Z,25.73
2018-04-17T05:44:04.560Z,23.30
2018-04-17T05:47:07.988Z,24.70
2018-04-17T05:50:11.420Z,24.00
2018-04-17T05:53:15.512Z,24.37
2018-04-17T05:56:19.000Z,26.23
2018-04-17T05:59:22.419Z,25.50
2018-04-17T06:02:25.906Z,25.07
2018-04-17T06:05:29.263Z,26.77
2018-04-17T06:08:32.624Z,25.67
2018-04-17T06:11:35.986Z,25.40
2018-04-17T06:14:40.184Z,23.87
2018-04-17T06:17:43.627Z,23.20
2018-04-17T06:20:46.994Z,21.67
2018-04-17T06:23:51.333Z,18.73
2018-04-17T06:26:55.642Z,19.33
2018-04-17T06:29:59.776Z,19.57
2018-04-17T06:33:03.894Z,18.80
2018-04-17T06:36:07.420Z,18.80
2018-04-17T06:39:10.833Z,18.47
2018-04-17T06:42:14.272Z,17.90
2018-04-17T06:45:17.750Z,15.70
2018-04-17T06:48:21.100Z,16.63
2018-04-17T06:51:24.457Z,16.70
2018-04-17T06:54:27.817Z,15.53
2018-04-17T06:57:31.181Z,14.00
2018-04-17T07:00:35.311Z,14.77
2018-04-17T07:03:38.670Z,15.07
2018-04-17T07:06:42.106Z,13.10
2018-04-17T07:09:46.224Z,12.27
2018-04-17T07:12:50.373Z,11.83
2018-04-17T07:15:53.745Z,12.60
2018-04-17T07:18:57.988Z,12.67
2018-04-17T07:22:01.376Z,11.53
2018-04-17T07:25:04.730Z,12.40
2018-04-17T07:28:08.106Z,12.17
2018-04-17T07:31:11.514Z,11.77
2018-04-17T07:34:14.953Z,11.93
2018-04-17T07:37:19.188Z,10.83
2018-04-17T07:40:23.236Z,11.27
2018-04-17T07:43:26.616Z,10.33
2018-04-17T07:46:30.119Z,8.90
2018-04-17T07:49:33.505Z,10.50
2018-04-17T07:52:36.893Z,10.93
2018-04-17T07:55:41.029Z,11.00
2018-04-17T07:58:44.382Z,9.83
2018-04-17T08:01:47.752Z,9.37
2018-04-17T08:04:51.113Z,8.67
2018-04-17T08:07:54.640Z,8.43
2018-04-17T08:10:57.999Z,7.63
2018-04-17T08:14:02.256Z,7.77
2018-04-17T08:17:05.726Z,7.00
2018-04-17T08:20:09.868Z,6.90
2018-04-17T08:23:13.236Z,7.50
2018-04-17T08:26:17.370Z,5.80
2018-04-17T08:29:20.728Z,7.93
2018-04-17T08:32:24.097Z,7.70
2018-04-17T08:35:27.455Z,5.57
2018-04-17T08:38:31.594Z,16.13
2018-04-17T08:41:34.950Z,6.20
2018-04-17T08:44:38.313Z,6.60
2018-04-17T08:47:41.672Z,6.23
2018-04-17T08:50:45.796Z,6.50
2018-04-17T08:53:49.945Z,6.17
2018-04-17T08:56:53.424Z,6.60
2018-04-17T08:59:56.999Z,6.43
2018-04-17T09:03:00.441Z,6.30
2018-04-17T09:06:03.826Z,6.77
2018-04-17T09:09:07.195Z,6.23
2018-04-17T09:12:10.563Z,5.87
2018-04-17T09:15:13.955Z,6.23
2018-04-17T09:18:17.310Z,5.43
2018-04-17T09:21:21.445Z,7.37
2018-04-17T09:24:24.997Z,6.37
2018-04-17T09:27:29.148Z,5.50
2018-04-17T09:30:33.288Z,5.67
2018-04-17T09:33:36.692Z,4.40
2018-04-17T09:36:40.052Z,4.77
2018-04-17T09:39:43.425Z,4.37
2018-04-17T09:42:46.790Z,3.90
2018-04-17T09:45:50.407Z,4.83
2018-04-17T09:48:53.787Z,4.70
2018-04-17T09:51:57.191Z,5.13
2018-04-17T09:55:00.660Z,4.53
2018-04-17T09:58:04.791Z,4.97
2018-04-17T10:01:21.630Z,4.30
2018-04-17T10:04:25.002Z,4.07
2018-04-17T10:07:29.164Z,3.40
2018-04-17T10:10:32.581Z,4.20
2018-04-17T10:13:35.953Z,3.83
2018-04-17T10:16:39.347Z,3.27
2018-04-17T10:19:42.722Z,3.10
2018-04-17T10:22:46.856Z,2.83
2018-04-17T10:25:50.220Z,2.70
2018-04-17T10:28:53.589Z,3.50
2018-04-17T10:31:56.962Z,3.30
2018-04-17T10:35:00.347Z,3.17
2018-04-17T10:38:03.704Z,3.00
2018-04-17T10:41:07.160Z,2.27
2018-04-17T10:44:10.517Z,2.33
2018-04-17T10:47:14.861Z,2.90
2018-04-17T10:50:18.246Z,2.63
2018-04-17T10:53:22.395Z,2.63
2018-04-17T10:56:25.833Z,3.00
2018-04-17T10:59:29.255Z,2.60
2018-04-17T11:02:32.624Z,2.60
2018-04-17T11:05:35.974Z,3.00
2018-04-17T11:08:40.144Z,2.60
2018-04-17T11:11:43.505Z,2.87
2018-04-17T11:14:46.941Z,2.20
2018-04-17T11:17:50.316Z,2.43
2018-04-17T11:20:53.687Z,2.47
2018-04-17T11:23:57.845Z,2.10
2018-04-17T11:27:01.385Z,2.27
2018-04-17T11:30:05.919Z,2.77
2018-04-17T11:33:10.212Z,2.53
2018-04-17T11:36:13.593Z,2.60
2018-04-17T11:39:16.965Z,2.40
2018-04-17T11:42:20.330Z,2.57
2018-04-17T11:45:23.786Z,2.53
2018-04-17T11:48:27.169Z,2.20
2018-04-17T11:51:30.529Z,3.03
2018-04-17T11:54:33.900Z,2.07
2018-04-17T11:57:37.262Z,2.30
2018-04-17T12:00:40.660Z,2.87
2018-04-17T12:03:44.763Z,2.27
2018-04-17T12:06:48.153Z,2.63
2018-04-17T12:09:52.285Z,2.57
2018-04-17T12:12:56.434Z,2.53
2018-04-17T12:15:59.811Z,3.03
2018-04-17T12:19:03.312Z,2.70
2018-04-17T12:22:06.681Z,2.70
2018-04-17T12:25:10.110Z,2.23
2018-04-17T12:28:13.489Z,2.77
2018-04-17T12:31:16.861Z,2.63
2018-04-17T12:34:20.233Z,2.33
2018-04-17T12:37:23.600Z,2.67
2018-04-17T12:40:27.751Z,2.53
2018-04-17T12:43:31.111Z,3.20
2018-04-17T12:46:35.431Z,3.40
2018-04-17T12:49:39.579Z,4.80
2018-04-17T12:52:43.053Z,2.70
2018-04-17T12:55:47.324Z,2.80
2018-04-17T12:58:50.715Z,2.60
2018-04-17T13:01:54.090Z,2.63
2018-04-17T13:04:57.558Z,3.27
2018-04-17T13:08:00.920Z,2.57
2018-04-17T13:11:04.276Z,2.30
2018-04-17T13:14:08.391Z,2.47
2018-04-17T13:17:12.537Z,2.67
2018-04-17T13:20:15.872Z,2.70
2018-04-17T13:23:19.256Z,2.70
2018-04-17T13:26:22.601Z,2.10
2018-04-17T13:29:26.727Z,2.63
2018-04-17T13:32:30.869Z,2.80
2018-04-17T13:35:34.236Z,2.87
2018-04-17T13:38:38.373Z,2.70
2018-04-17T13:41:41.755Z,2.63
2018-04-17T13:44:45.886Z,3.10
2018-04-17T13:47:49.308Z,2.63
2018-04-17T13:50:52.660Z,2.63
2018-04-17T13:53:56.021Z,2.60
2018-04-17T13:56:59.563Z,2.80
2018-04-17T14:00:02.952Z,3.00
2018-04-17T14:03:06.316Z,3.93
2018-04-17T14:06:09.695Z,4.20
2018-04-17T14:09:13.069Z,4.10
2018-04-17T14:12:17.200Z,4.23
2018-04-17T14:15:20.593Z,3.90
2018-04-17T14:18:24.887Z,3.97
2018-04-17T14:21:28.308Z,4.70
2018-04-17T14:24:32.437Z,4.80
2018-04-17T14:27:35.806Z,4.50
2018-04-17T14:30:39.246Z,4.07
2018-04-17T14:33:42.700Z,3.77
2018-04-17T14:36:46.140Z,4.70
2018-04-17T14:39:49.515Z,3.93
2018-04-17T14:42:52.883Z,4.43
2018-04-17T14:45:56.280Z,3.80
2018-04-17T14:48:59.666Z,3.43
2018-04-17T14:52:03.041Z,3.63
2018-04-17T14:55:06.399Z,4.00
2018-04-17T14:58:09.778Z,3.60
2018-04-17T15:01:13.165Z,3.43
2018-04-17T15:04:16.575Z,3.57
2018-04-17T15:07:19.938Z,3.53
2018-04-17T15:10:23.317Z,3.90
2018-04-17T15:13:27.445Z,3.23
2018-04-17T15:16:31.581Z,3.60
2018-04-17T15:19:34.948Z,4.20
2018-04-17T15:22:39.109Z,3.77
2018-04-17T15:25:42.490Z,3.47
2018-04-17T15:28:45.864Z,3.20
2018-04-17T15:31:50.021Z,3.53
2018-04-17T15:34:53.532Z,3.70
2018-04-17T15:37:56.918Z,3.10
2018-04-17T15:41:00.310Z,3.57
2018-04-17T15:44:03.782Z,3.40
2018-04-17T15:47:07.946Z,4.17
2018-04-17T15:50:11.322Z,3.60
2018-04-17T15:53:14.693Z,3.47
2018-04-17T15:56:18.106Z,3.47
2018-04-17T15:59:22.366Z,3.80
2018-04-17T16:02:25.957Z,3.80
2018-04-17T16:05:29.325Z,4.10
2018-04-17T16:08:32.714Z,4.13
2018-04-17T16:11:36.125Z,3.83
2018-04-17T16:14:40.434Z,3.50
2018-04-17T16:17:44.211Z,2.67
2018-04-17T16:20:47.700Z,3.63
2018-04-17T16:23:51.103Z,3.00
2018-04-17T16:26:54.460Z,2.97
2018-04-17T16:29:58.699Z,4.00
2018-04-17T16:33:02.155Z,3.67
2018-04-17T16:36:05.610Z,3.30
2018-04-17T16:39:09.014Z,3.57
2018-04-17T16:42:12.415Z,3.83
2018-04-17T16:45:15.792Z,4.67
2018-04-17T16:48:19.919Z,3.70
2018-04-17T16:51:23.399Z,4.07
2018-04-17T16:54:27.558Z,3.70
2018-04-17T16:57:30.954Z,3.70
2018-04-17T17:00:34.354Z,4.13
2018-04-17T17:03:37.836Z,4.10
2018-04-17T17:06:42.005Z,3.73
2018-04-17T17:09:45.425Z,4.23
2018-04-17T17:12:48.889Z,4.17
2018-04-17T17:15:52.286Z,3.77
2018-04-17T17:18:55.696Z,3.70
2018-04-17T17:21:59.124Z,4.30
2018-04-17T17:25:03.285Z,4.57
2018-04-17T17:28:06.654Z,4.47
2018-04-17T17:31:10.803Z,3.40
2018-04-17T17:34:14.182Z,6.10
2018-04-17T17:37:18.335Z,4.83
2018-04-17T17:40:21.718Z,5.73
2018-04-17T17:43:25.237Z,5.20
2018-04-17T17:46:28.671Z,4.30
2018-04-17T17:49:32.062Z,5.30
2018-04-17T17:52:35.436Z,5.33
2018-04-17T17:55:38.818Z,5.10
2018-04-17T17:58:42.200Z,5.83
2018-04-17T18:01:46.331Z,5.87
2018-04-17T18:04:49.746Z,4.70
2018-04-17T18:07:53.110Z,4.10
2018-04-17T18:10:57.328Z,5.00
2018-04-17T18:14:01.555Z,4.70
2018-04-17T18:17:05.738Z,5.47
2018-04-17T18:20:09.072Z,5.33
2018-04-17T18:23:13.327Z,5.57
2018-04-17T18:26:16.749Z,5.63
2018-04-17T18:29:20.154Z,5.60
2018-04-17T18:32:23.714Z,6.20
2018-04-17T18:35:27.145Z,5.60
2018-04-17T18:38:30.529Z,6.10
2018-04-17T18:41:33.968Z,5.27
2018-04-17T18:44:37.432Z,6.53
2018-04-17T18:47:40.812Z,6.17
2018-04-17T18:50:44.197Z,5.87
2018-04-17T18:53:48.333Z,6.73
2018-04-17T18:56:51.710Z,6.27
2018-04-17T18:59:56.040Z,6.80
2018-04-17T19:03:00.170Z,6.30
2018-04-17T19:06:03.736Z,7.50
2018-04-17T19:09:07.113Z,6.50
2018-04-17T19:12:10.550Z,6.37
2018-04-17T19:15:14.739Z,6.03
2018-04-17T19:18:18.122Z,6.20
2018-04-17T19:21:21.514Z,6.97
2018-04-17T19:24:24.911Z,6.23
2018-04-17T19:27:28.295Z,6.17
2018-04-17T19:30:31.692Z,6.60
2018-04-17T19:33:35.076Z,7.00
2018-04-17T19:36:39.218Z,7.40
2018-04-17T19:39:42.638Z,7.77
2018-04-17T19:42:46.002Z,7.63
2018-04-17T19:45:49.376Z,8.30
2018-04-17T19:48:52.767Z,8.03
2018-04-17T19:51:56.134Z,8.97
2018-04-17T19:54:59.513Z,7.27
2018-04-17T19:58:02.915Z,7.47
2018-04-17T20:01:06.285Z,8.50
2018-04-17T20:04:10.444Z,8.23
2018-04-17T20:07:13.846Z,7.97
2018-04-17T20:10:17.225Z,8.50
2018-04-17T20:13:20.615Z,8.40
2018-04-17T20:16:23.990Z,8.57
2018-04-17T20:19:27.397Z,8.20
2018-04-17T20:22:31.541Z,7.57
2018-04-17T20:25:34.925Z,7.77
2018-04-17T20:28:39.071Z,8.03
2018-04-17T20:31:42.505Z,8.60
2018-04-17T20:34:45.866Z,9.50
2018-04-17T20:37:49.245Z,8.63
2018-04-17T20:40:53.485Z,7.83
2018-04-17T20:43:56.883Z,7.60
2018-04-17T20:47:00.248Z,7.83
2018-04-17T20:50:04.385Z,7.93
2018-04-17T20:53:07.796Z,7.97
2018-04-17T20:56:11.207Z,8.27
2018-04-17T20:59:14.566Z,8.23
2018-04-17T21:02:18.710Z,8.97
2018-04-17T21:05:22.082Z,8.83
2018-04-17T21:08:26.207Z,8.43
2018-04-17T21:11:30.351Z,7.87
2018-04-17T21:14:33.724Z,8.30
2018-04-17T21:17:37.930Z,9.47
2018-04-17T21:20:41.315Z,9.50
2018-04-17T21:23:44.691Z,9.57
2018-04-17T21:26:48.068Z,9.67
2018-04-17T21:29:51.465Z,9.63
2018-04-17T21:32:54.851Z,9.93
2018-04-17T21:35:59.041Z,9.77
2018-04-17T21:39:02.408Z,9.50
2018-04-17T21:42:05.879Z,9.97
2018-04-17T21:45:09.310Z,10.33
2018-04-17T21:48:12.694Z,9.93
2018-04-17T21:51:16.069Z,9.17
2018-04-17T21:54:19.529Z,9.77
2018-04-17T21:57:22.867Z,9.73
2018-04-17T22:00:26.275Z,9.27
2018-04-17T22:03:29.639Z,9.00
2018-04-17T22:06:33.021Z,8.77
2018-04-17T22:09:36.405Z,8.93
2018-04-17T22:12:39.818Z,8.00
2018-04-17T22:15:43.199Z,8.33
2018-04-17T22:18:46.562Z,8.80
2018-04-17T22:21:50.804Z,7.60
2018-04-17T22:24:54.212Z,8.53
2018-04-17T22:27:57.583Z,7.43
2018-04-17T22:31:01.706Z,7.93
2018-04-17T22:34:05.090Z,7.60
2018-04-17T22:37:09.253Z,7.43
2018-04-17T22:40:12.617Z,7.90
2018-04-17T22:43:16.760Z,7.53
2018-04-17T22:46:20.175Z,7.57
2018-04-17T22:49:23.590Z,8.00
2018-04-17T22:52:27.041Z,7.47
2018-04-17T22:55:30.412Z,8.40
2018-04-17T22:58:33.896Z,7.30
2018-04-17T23:01:37.256Z,6.80
2018-04-17T23:04:40.633Z,8.10
2018-04-17T23:07:44.764Z,7.17
2018-04-17T23:10:48.121Z,7.27
2018-04-17T23:13:51.494Z,7.37
2018-04-17T23:16:54.849Z,7.00
2018-04-17T23:19:58.984Z,7.60
2018-04-17T23:23:02.345Z,6.87
2018-04-17T23:26:06.478Z,8.00
2018-04-17T23:29:10.622Z,7.33
2018-04-17T23:32:14.026Z,7.33
2018-04-17T23:35:17.385Z,7.37
2018-04-17T23:38:21.801Z,6.80
2018-04-17T23:41:25.236Z,6.90
2018-04-17T23:44:28.677Z,7.70
2018-04-17T23:47:32.056Z,7.03
2018-04-17T23:50:35.486Z,7.97
2018-04-17T23:53:39.748Z,7.20
2018-04-17T23:56:44.054Z,7.87
2018-04-17T23:59:48.207Z,8.80
